sensor_id;sensor_type;location;lat;lon;timestamp;temperature;humidity
53314;DHT22;39202;51.468;7.146;2022-11-15T00:02:44;23.20;44.20
53314;DHT22;39202;51.468;7.146;2022-11-15T00:07:47;23.20;44.20
53314;DHT22;39202;51.468;7.146;2022-11-15T00:12:48;23.20;44.20
53314;DHT22;39202;51.468;7.146;2022-11-15T00:17:51;23.20;44.30
53314;DHT22;39202;51.468;7.146;2022-11-15T00:22:53;23.20;44.30
53314;DHT22;39202;51.468;7.146;2022-11-15T00:27:55;23.20;44.90
53314;DHT22;39202;51.468;7.146;2022-11-15T00:33:01;23.20;44.30
53314;DHT22;39202;51.468;7.146;2022-11-15T00:38:03;23.20;44.30
53314;DHT22;39202;51.468;7.146;2022-11-15T00:43:05;23.20;44.20
53314;DHT22;39202;51.468;7.146;2022-11-15T00:48:09;23.20;44.30
53314;DHT22;39202;51.468;7.146;2022-11-15T00:53:11;23.20;44.30
53314;DHT22;39202;51.468;7.146;2022-11-15T00:58:13;23.10;44.20
53314;DHT22;39202;51.468;7.146;2022-11-15T01:03:16;23.10;44.30
53314;DHT22;39202;51.468;7.146;2022-11-15T01:08:18;23.10;44.30
53314;DHT22;39202;51.468;7.146;2022-11-15T01:13:19;23.10;44.30
53314;DHT22;39202;51.468;7.146;2022-11-15T01:18:22;23.10;44.30
53314;DHT22;39202;51.468;7.146;2022-11-15T01:23:24;23.10;44.30
53314;DHT22;39202;51.468;7.146;2022-11-15T01:28:29;23.10;44.30
53314;DHT22;39202;51.468;7.146;2022-11-15T01:33:34;23.10;44.30
53314;DHT22;39202;51.468;7.146;2022-11-15T01:38:36;23.10;44.30
53314;DHT22;39202;51.468;7.146;2022-11-15T01:43:39;23.10;44.30
53314;DHT22;39202;51.468;7.146;2022-11-15T01:48:43;23.10;44.30
53314;DHT22;39202;51.468;7.146;2022-11-15T01:53:48;23.10;44.30
53314;DHT22;39202;51.468;7.146;2022-11-15T01:58:51;23.10;44.30
53314;DHT22;39202;51.468;7.146;2022-11-15T02:03:58;23.00;44.30
53314;DHT22;39202;51.468;7.146;2022-11-15T02:09:01;23.00;44.30
53314;DHT22;39202;51.468;7.146;2022-11-15T02:14:03;23.00;44.30
53314;DHT22;39202;51.468;7.146;2022-11-15T02:19:18;23.00;44.30
53314;DHT22;39202;51.468;7.146;2022-11-15T02:24:45;23.00;44.40
53314;DHT22;39202;51.468;7.146;2022-11-15T02:30:04;23.00;44.30
53314;DHT22;39202;51.468;7.146;2022-11-15T02:35:15;23.00;44.30
53314;DHT22;39202;51.468;7.146;2022-11-15T02:40:26;23.00;44.30
53314;DHT22;39202;51.468;7.146;2022-11-15T02:45:33;23.00;44.40
53314;DHT22;39202;51.468;7.146;2022-11-15T02:50:38;23.00;44.30
53314;DHT22;39202;51.468;7.146;2022-11-15T02:55:44;23.00;44.30
53314;DHT22;39202;51.468;7.146;2022-11-15T03:00:54;22.90;44.30
53314;DHT22;39202;51.468;7.146;2022-11-15T03:06:09;23.00;44.40
53314;DHT22;39202;51.468;7.146;2022-11-15T03:11:17;23.00;44.40
53314;DHT22;39202;51.468;7.146;2022-11-15T03:16:24;22.90;44.40
53314;DHT22;39202;51.468;7.146;2022-11-15T03:21:29;22.90;44.40
53314;DHT22;39202;51.468;7.146;2022-11-15T03:26:33;22.90;44.40
53314;DHT22;39202;51.468;7.146;2022-11-15T03:31:38;22.90;44.40
53314;DHT22;39202;51.468;7.146;2022-11-15T03:36:51;22.90;44.40
53314;DHT22;39202;51.468;7.146;2022-11-15T03:42:01;22.90;44.40
53314;DHT22;39202;51.468;7.146;2022-11-15T03:47:07;22.90;44.40
53314;DHT22;39202;51.468;7.146;2022-11-15T03:52:12;22.90;44.40
53314;DHT22;39202;51.468;7.146;2022-11-15T03:57:14;22.90;44.40
53314;DHT22;39202;51.468;7.146;2022-11-15T04:02:16;22.90;44.40
53314;DHT22;39202;51.468;7.146;2022-11-15T04:07:19;22.90;44.40
53314;DHT22;39202;51.468;7.146;2022-11-15T04:12:21;22.90;44.40
53314;DHT22;39202;51.468;7.146;2022-11-15T04:17:31;22.90;44.40
53314;DHT22;39202;51.468;7.146;2022-11-15T04:22:34;22.90;44.40
53314;DHT22;39202;51.468;7.146;2022-11-15T04:27:53;22.90;44.50
53314;DHT22;39202;51.468;7.146;2022-11-15T04:32:55;22.80;44.40
53314;DHT22;39202;51.468;7.146;2022-11-15T04:37:58;22.80;44.40
53314;DHT22;39202;51.468;7.146;2022-11-15T04:43:00;22.80;44.50
53314;DHT22;39202;51.468;7.146;2022-11-15T04:48:02;22.90;44.50
53314;DHT22;39202;51.468;7.146;2022-11-15T04:53:05;22.80;44.40
53314;DHT22;39202;51.468;7.146;2022-11-15T04:58:08;22.80;44.40
53314;DHT22;39202;51.468;7.146;2022-11-15T05:03:10;22.80;44.50
53314;DHT22;39202;51.468;7.146;2022-11-15T05:08:31;22.80;44.50
53314;DHT22;39202;51.468;7.146;2022-11-15T05:13:33;22.80;44.50
53314;DHT22;39202;51.468;7.146;2022-11-15T05:18:34;23.00;44.60
53314;DHT22;39202;51.468;7.146;2022-11-15T05:23:38;22.80;44.50
53314;DHT22;39202;51.468;7.146;2022-11-15T05:28:39;22.80;44.50
53314;DHT22;39202;51.468;7.146;2022-11-15T05:33:42;22.80;44.50
53314;DHT22;39202;51.468;7.146;2022-11-15T05:38:46;22.80;44.50
53314;DHT22;39202;51.468;7.146;2022-11-15T05:43:49;22.80;44.50
53314;DHT22;39202;51.468;7.146;2022-11-15T05:48:52;22.80;44.50
53314;DHT22;39202;51.468;7.146;2022-11-15T05:53:57;22.80;44.50
53314;DHT22;39202;51.468;7.146;2022-11-15T05:58:59;22.80;44.50
53314;DHT22;39202;51.468;7.146;2022-11-15T06:04:01;22.80;44.50
53314;DHT22;39202;51.468;7.146;2022-11-15T06:09:04;22.80;44.50
53314;DHT22;39202;51.468;7.146;2022-11-15T06:14:06;22.70;44.50
53314;DHT22;39202;51.468;7.146;2022-11-15T06:19:08;22.70;44.50
53314;DHT22;39202;51.468;7.146;2022-11-15T06:24:11;22.80;44.50
53314;DHT22;39202;51.468;7.146;2022-11-15T06:29:13;22.70;44.50
53314;DHT22;39202;51.468;7.146;2022-11-15T06:34:14;22.70;44.50
53314;DHT22;39202;51.468;7.146;2022-11-15T06:39:17;22.70;45.20
53314;DHT22;39202;51.468;7.146;2022-11-15T06:44:19;22.70;44.50
53314;DHT22;39202;51.468;7.146;2022-11-15T06:49:21;22.70;44.50
53314;DHT22;39202;51.468;7.146;2022-11-15T06:54:24;22.70;44.50
53314;DHT22;39202;51.468;7.146;2022-11-15T06:59:25;22.70;44.60
53314;DHT22;39202;51.468;7.146;2022-11-15T07:04:27;22.70;44.60
53314;DHT22;39202;51.468;7.146;2022-11-15T07:09:30;22.70;44.60
53314;DHT22;39202;51.468;7.146;2022-11-15T07:14:32;22.70;44.60
53314;DHT22;39202;51.468;7.146;2022-11-15T07:19:34;22.70;44.80
53314;DHT22;39202;51.468;7.146;2022-11-15T07:24:37;22.70;45.00
53314;DHT22;39202;51.468;7.146;2022-11-15T07:29:39;22.80;45.20
53314;DHT22;39202;51.468;7.146;2022-11-15T07:34:40;22.80;45.30
53314;DHT22;39202;51.468;7.146;2022-11-15T07:39:44;22.90;45.40
53314;DHT22;39202;51.468;7.146;2022-11-15T07:44:45;23.10;45.50
53314;DHT22;39202;51.468;7.146;2022-11-15T07:49:47;23.20;45.60
53314;DHT22;39202;51.468;7.146;2022-11-15T07:54:50;23.30;45.70
53314;DHT22;39202;51.468;7.146;2022-11-15T07:59:52;23.40;45.50
53314;DHT22;39202;51.468;7.146;2022-11-15T08:04:53;23.50;45.60
53314;DHT22;39202;51.468;7.146;2022-11-15T08:09:57;23.60;45.60
53314;DHT22;39202;51.468;7.146;2022-11-15T08:14:58;23.80;45.70
53314;DHT22;39202;51.468;7.146;2022-11-15T08:20:00;23.90;45.70
53314;DHT22;39202;51.468;7.146;2022-11-15T08:25:05;24.00;45.60
53314;DHT22;39202;51.468;7.146;2022-11-15T08:30:07;24.10;45.70
53314;DHT22;39202;51.468;7.146;2022-11-15T08:35:09;24.20;45.60
53314;DHT22;39202;51.468;7.146;2022-11-15T08:40:12;24.30;45.50
53314;DHT22;39202;51.468;7.146;2022-11-15T08:45:15;24.40;45.40
53314;DHT22;39202;51.468;7.146;2022-11-15T08:50:16;24.50;45.40
53314;DHT22;39202;51.468;7.146;2022-11-15T08:55:20;24.60;45.30
53314;DHT22;39202;51.468;7.146;2022-11-15T09:00:21;24.70;45.20
53314;DHT22;39202;51.468;7.146;2022-11-15T09:05:23;24.80;45.20
53314;DHT22;39202;51.468;7.146;2022-11-15T09:10:26;24.80;45.10
53314;DHT22;39202;51.468;7.146;2022-11-15T09:15:28;24.90;45.00
53314;DHT22;39202;51.468;7.146;2022-11-15T09:20:30;25.00;45.00
53314;DHT22;39202;51.468;7.146;2022-11-15T09:25:33;25.00;45.00
53314;DHT22;39202;51.468;7.146;2022-11-15T09:30:34;25.00;44.90
53314;DHT22;39202;51.468;7.146;2022-11-15T09:35:36;25.10;44.90
53314;DHT22;39202;51.468;7.146;2022-11-15T09:40:39;25.10;44.90
53314;DHT22;39202;51.468;7.146;2022-11-15T09:45:49;25.10;44.80
53314;DHT22;39202;51.468;7.146;2022-11-15T09:50:53;25.20;44.90
53314;DHT22;39202;51.468;7.146;2022-11-15T09:56:03;25.20;44.90
53314;DHT22;39202;51.468;7.146;2022-11-15T10:01:11;25.30;44.90
53314;DHT22;39202;51.468;7.146;2022-11-15T10:06:22;25.30;44.90
53314;DHT22;39202;51.468;7.146;2022-11-15T10:11:28;25.40;44.90
53314;DHT22;39202;51.468;7.146;2022-11-15T10:17:02;25.40;44.90
53314;DHT22;39202;51.468;7.146;2022-11-15T10:22:24;25.50;44.80
53314;DHT22;39202;51.468;7.146;2022-11-15T10:27:29;25.50;44.80
53314;DHT22;39202;51.468;7.146;2022-11-15T10:32:33;25.50;44.70
53314;DHT22;39202;51.468;7.146;2022-11-15T10:37:36;25.60;44.80
53314;DHT22;39202;51.468;7.146;2022-11-15T10:42:39;25.60;44.80
53314;DHT22;39202;51.468;7.146;2022-11-15T10:47:41;25.60;44.80
53314;DHT22;39202;51.468;7.146;2022-11-15T10:52:46;25.60;44.80
53314;DHT22;39202;51.468;7.146;2022-11-15T10:57:51;25.70;44.80
53314;DHT22;39202;51.468;7.146;2022-11-15T11:02:57;25.70;44.60
53314;DHT22;39202;51.468;7.146;2022-11-15T11:08:01;25.70;44.70
53314;DHT22;39202;51.468;7.146;2022-11-15T11:13:21;25.70;44.60
53314;DHT22;39202;51.468;7.146;2022-11-15T11:18:26;25.70;44.50
53314;DHT22;39202;51.468;7.146;2022-11-15T11:23:40;25.70;44.50
53314;DHT22;39202;51.468;7.146;2022-11-15T11:28:49;25.70;44.50
53314;DHT22;39202;51.468;7.146;2022-11-15T11:51:05;25.80;44.30
53314;DHT22;39202;51.468;7.146;2022-11-15T11:56:17;25.80;44.30
53314;DHT22;39202;51.468;7.146;2022-11-15T12:01:23;25.80;44.30
53314;DHT22;39202;51.468;7.146;2022-11-15T12:06:32;25.80;44.30
53314;DHT22;39202;51.468;7.146;2022-11-15T12:11:41;25.80;44.20
53314;DHT22;39202;51.468;7.146;2022-11-15T12:16:44;25.80;44.20
53314;DHT22;39202;51.468;7.146;2022-11-15T12:21:56;25.80;44.20
53314;DHT22;39202;51.468;7.146;2022-11-15T12:27:02;25.80;44.20
53314;DHT22;39202;51.468;7.146;2022-11-15T12:32:17;25.80;44.20
53314;DHT22;39202;51.468;7.146;2022-11-15T12:48:59;25.80;44.20
53314;DHT22;39202;51.468;7.146;2022-11-15T12:59:50;25.80;44.30
53314;DHT22;39202;51.468;7.146;2022-11-15T13:04:55;25.80;45.00
53314;DHT22;39202;51.468;7.146;2022-11-15T13:10:32;25.80;44.40
53314;DHT22;39202;51.468;7.146;2022-11-15T13:15:56;25.80;44.40
53314;DHT22;39202;51.468;7.146;2022-11-15T13:20:58;25.80;44.40
53314;DHT22;39202;51.468;7.146;2022-11-15T13:26:12;25.80;44.40
53314;DHT22;39202;51.468;7.146;2022-11-15T13:31:25;25.80;44.40
53314;DHT22;39202;51.468;7.146;2022-11-15T13:36:31;25.80;44.50
53314;DHT22;39202;51.468;7.146;2022-11-15T13:41:36;25.80;44.60
53314;DHT22;39202;51.468;7.146;2022-11-15T13:46:46;25.80;44.50
53314;DHT22;39202;51.468;7.146;2022-11-15T13:51:49;25.80;44.50
53314;DHT22;39202;51.468;7.146;2022-11-15T13:56:57;25.80;44.40
53314;DHT22;39202;51.468;7.146;2022-11-15T14:02:09;25.80;44.40
53314;DHT22;39202;51.468;7.146;2022-11-15T14:07:16;25.80;44.50
53314;DHT22;39202;51.468;7.146;2022-11-15T14:12:29;25.80;44.50
53314;DHT22;39202;51.468;7.146;2022-11-15T14:17:36;25.70;44.50
53314;DHT22;39202;51.468;7.146;2022-11-15T14:22:51;25.70;44.50
53314;DHT22;39202;51.468;7.146;2022-11-15T14:28:15;25.70;44.50
53314;DHT22;39202;51.468;7.146;2022-11-15T14:33:21;25.70;44.50
53314;DHT22;39202;51.468;7.146;2022-11-15T14:38:23;25.70;44.20
53314;DHT22;39202;51.468;7.146;2022-11-15T14:43:27;25.60;44.80
53314;DHT22;39202;51.468;7.146;2022-11-15T14:48:28;25.60;44.10
53314;DHT22;39202;51.468;7.146;2022-11-15T14:53:30;25.50;44.10
53314;DHT22;39202;51.468;7.146;2022-11-15T14:58:34;25.50;44.20
53314;DHT22;39202;51.468;7.146;2022-11-15T15:03:35;25.50;44.30
53314;DHT22;39202;51.468;7.146;2022-11-15T15:08:37;25.40;44.30
53314;DHT22;39202;51.468;7.146;2022-11-15T15:13:40;25.40;44.40
53314;DHT22;39202;51.468;7.146;2022-11-15T15:18:42;25.40;44.50
53314;DHT22;39202;51.468;7.146;2022-11-15T15:23:44;25.40;44.40
53314;DHT22;39202;51.468;7.146;2022-11-15T15:28:47;25.40;44.40
53314;DHT22;39202;51.468;7.146;2022-11-15T15:33:51;25.40;44.50
53314;DHT22;39202;51.468;7.146;2022-11-15T15:38:53;25.40;44.50
53314;DHT22;39202;51.468;7.146;2022-11-15T15:43:56;25.40;44.60
53314;DHT22;39202;51.468;7.146;2022-11-15T15:48:57;25.30;45.30
53314;DHT22;39202;51.468;7.146;2022-11-15T15:53:59;25.30;44.60
53314;DHT22;39202;51.468;7.146;2022-11-15T15:59:02;25.40;44.70
53314;DHT22;39202;51.468;7.146;2022-11-15T16:04:04;25.30;44.40
53314;DHT22;39202;51.468;7.146;2022-11-15T16:09:06;25.40;44.50
53314;DHT22;39202;51.468;7.146;2022-11-15T16:14:09;25.30;44.50
53314;DHT22;39202;51.468;7.146;2022-11-15T16:19:11;25.30;44.50
53314;DHT22;39202;51.468;7.146;2022-11-15T16:24:13;25.30;44.50
53314;DHT22;39202;51.468;7.146;2022-11-15T16:29:16;25.30;44.60
53314;DHT22;39202;51.468;7.146;2022-11-15T16:34:18;25.30;44.60
53314;DHT22;39202;51.468;7.146;2022-11-15T16:39:19;25.30;44.40
53314;DHT22;39202;51.468;7.146;2022-11-15T16:44:24;25.30;44.40
53314;DHT22;39202;51.468;7.146;2022-11-15T16:49:26;25.30;44.40
53314;DHT22;39202;51.468;7.146;2022-11-15T16:54:28;25.30;44.30
53314;DHT22;39202;51.468;7.146;2022-11-15T16:59:31;25.20;44.30
53314;DHT22;39202;51.468;7.146;2022-11-15T17:04:33;25.20;44.30
53314;DHT22;39202;51.468;7.146;2022-11-15T17:09:34;25.20;44.30
53314;DHT22;39202;51.468;7.146;2022-11-15T17:14:37;25.20;44.30
53314;DHT22;39202;51.468;7.146;2022-11-15T17:19:39;25.10;44.30
53314;DHT22;39202;51.468;7.146;2022-11-15T17:24:41;25.10;44.30
53314;DHT22;39202;51.468;7.146;2022-11-15T17:29:44;25.10;44.40
53314;DHT22;39202;51.468;7.146;2022-11-15T17:34:46;25.10;44.40
53314;DHT22;39202;51.468;7.146;2022-11-15T17:39:47;25.00;44.30
53314;DHT22;39202;51.468;7.146;2022-11-15T17:44:50;24.90;44.30
53314;DHT22;39202;51.468;7.146;2022-11-15T17:49:52;25.00;44.30
53314;DHT22;39202;51.468;7.146;2022-11-15T17:54:54;25.00;44.30
53314;DHT22;39202;51.468;7.146;2022-11-15T17:59:57;25.00;44.30
53314;DHT22;39202;51.468;7.146;2022-11-15T18:04:58;25.00;44.30
53314;DHT22;39202;51.468;7.146;2022-11-15T18:10:00;25.00;44.30
53314;DHT22;39202;51.468;7.146;2022-11-15T18:15:04;25.00;44.30
53314;DHT22;39202;51.468;7.146;2022-11-15T18:20:06;24.90;44.30
53314;DHT22;39202;51.468;7.146;2022-11-15T18:25:09;24.90;44.30
53314;DHT22;39202;51.468;7.146;2022-11-15T18:30:13;24.90;44.40
53314;DHT22;39202;51.468;7.146;2022-11-15T18:35:15;24.80;44.30
53314;DHT22;39202;51.468;7.146;2022-11-15T18:40:17;24.80;44.30
53314;DHT22;39202;51.468;7.146;2022-11-15T18:45:20;24.80;44.30
53314;DHT22;39202;51.468;7.146;2022-11-15T18:50:21;24.80;44.40
53314;DHT22;39202;51.468;7.146;2022-11-15T18:55:23;24.80;44.40
53314;DHT22;39202;51.468;7.146;2022-11-15T19:00:26;24.80;44.40
53314;DHT22;39202;51.468;7.146;2022-11-15T19:05:28;24.80;44.40
53314;DHT22;39202;51.468;7.146;2022-11-15T19:10:29;24.70;44.30
53314;DHT22;39202;51.468;7.146;2022-11-15T19:15:33;24.70;44.40
53314;DHT22;39202;51.468;7.146;2022-11-15T19:20:34;24.70;44.50
53314;DHT22;39202;51.468;7.146;2022-11-15T19:25:36;24.60;44.60
53314;DHT22;39202;51.468;7.146;2022-11-15T19:30:39;24.60;44.70
53314;DHT22;39202;51.468;7.146;2022-11-15T19:35:41;24.60;44.80
53314;DHT22;39202;51.468;7.146;2022-11-15T19:40:42;24.60;44.80
53314;DHT22;39202;51.468;7.146;2022-11-15T19:45:52;24.70;44.90
53314;DHT22;39202;51.468;7.146;2022-11-15T19:50:53;24.70;45.00
53314;DHT22;39202;51.468;7.146;2022-11-15T19:55:56;24.70;44.90
53314;DHT22;39202;51.468;7.146;2022-11-15T20:01:04;24.70;44.80
53314;DHT22;39202;51.468;7.146;2022-11-15T20:06:08;24.60;44.80
53314;DHT22;39202;51.468;7.146;2022-11-15T20:11:10;24.60;44.80
53314;DHT22;39202;51.468;7.146;2022-11-15T20:16:16;24.60;44.80
53314;DHT22;39202;51.468;7.146;2022-11-15T20:21:18;24.60;44.80
53314;DHT22;39202;51.468;7.146;2022-11-15T20:26:21;24.60;44.70
53314;DHT22;39202;51.468;7.146;2022-11-15T20:31:24;24.60;44.70
53314;DHT22;39202;51.468;7.146;2022-11-15T20:36:26;24.60;44.70
53314;DHT22;39202;51.468;7.146;2022-11-15T20:41:28;24.50;44.70
53314;DHT22;39202;51.468;7.146;2022-11-15T20:46:31;24.50;44.70
53314;DHT22;39202;51.468;7.146;2022-11-15T20:51:33;24.50;44.70
53314;DHT22;39202;51.468;7.146;2022-11-15T20:56:34;24.50;44.70
53314;DHT22;39202;51.468;7.146;2022-11-15T21:01:37;24.50;44.70
53314;DHT22;39202;51.468;7.146;2022-11-15T21:06:39;24.40;44.70
53314;DHT22;39202;51.468;7.146;2022-11-15T21:11:41;24.40;44.70
53314;DHT22;39202;51.468;7.146;2022-11-15T21:17:02;24.40;44.70
53314;DHT22;39202;51.468;7.146;2022-11-15T21:22:04;24.40;44.70
53314;DHT22;39202;51.468;7.146;2022-11-15T21:27:06;24.30;44.60
53314;DHT22;39202;51.468;7.146;2022-11-15T21:32:10;24.30;44.70
53314;DHT22;39202;51.468;7.146;2022-11-15T21:37:11;24.30;44.70
53314;DHT22;39202;51.468;7.146;2022-11-15T21:42:13;24.30;44.70
53314;DHT22;39202;51.468;7.146;2022-11-15T21:47:16;24.30;44.70
53314;DHT22;39202;51.468;7.146;2022-11-15T21:52:18;24.30;44.80
53314;DHT22;39202;51.468;7.146;2022-11-15T21:57:20;24.20;44.70
53314;DHT22;39202;51.468;7.146;2022-11-15T22:02:23;24.20;44.80
53314;DHT22;39202;51.468;7.146;2022-11-15T22:07:24;24.20;44.70
53314;DHT22;39202;51.468;7.146;2022-11-15T22:12:26;24.20;44.60
53314;DHT22;39202;51.468;7.146;2022-11-15T22:17:29;24.20;44.70
53314;DHT22;39202;51.468;7.146;2022-11-15T22:22:44;24.20;44.70
53314;DHT22;39202;51.468;7.146;2022-11-15T22:27:46;24.20;44.80
53314;DHT22;39202;51.468;7.146;2022-11-15T22:32:49;24.10;44.70
53314;DHT22;39202;51.468;7.146;2022-11-15T22:37:51;24.10;44.70
53314;DHT22;39202;51.468;7.146;2022-11-15T22:42:53;24.10;44.70
53314;DHT22;39202;51.468;7.146;2022-11-15T22:47:56;24.10;44.70
53314;DHT22;39202;51.468;7.146;2022-11-15T22:52:57;24.10;46.70
53314;DHT22;39202;51.468;7.146;2022-11-15T22:57:59;24.10;44.70
53314;DHT22;39202;51.468;7.146;2022-11-15T23:03:02;24.10;49.00
53314;DHT22;39202;51.468;7.146;2022-11-15T23:08:04;24.10;48.60
53314;DHT22;39202;51.468;7.146;2022-11-15T23:13:11;24.10;47.60
53314;DHT22;39202;51.468;7.146;2022-11-15T23:18:20;24.00;44.70
53314;DHT22;39202;51.468;7.146;2022-11-15T23:23:21;24.00;44.70
53314;DHT22;39202;51.468;7.146;2022-11-15T23:28:23;24.00;44.70
53314;DHT22;39202;51.468;7.146;2022-11-15T23:33:26;24.00;44.70
53314;DHT22;39202;51.468;7.146;2022-11-15T23:38:56;23.90;44.70
53314;DHT22;39202;51.468;7.146;2022-11-15T23:43:58;24.00;44.80
53314;DHT22;39202;51.468;7.146;2022-11-15T23:49:02;23.90;77.10
53314;DHT22;39202;51.468;7.146;2022-11-15T23:59:06;23.80;43.90
